Time;durP1;ratioP1;P1;durP2;ratioP2;P2;SDS_P1;SDS_P2;PMS_P1;PMS_P2;Temp;Humidity;BMP_temperature;BMP_pressure;BME280_temperature;BME280_humidity;BME280_pressure;Samples;Min_cycle;Max_cycle;Signal;HPM_P1;HPM_P2
2022/06/15 00:00:52;;;;;;;14.63;5.50;;;;;;;12.27;77.38;101750.44;5058912;28;20052;-78
2022/06/15 00:03:18;;;;;;;14.63;5.43;;;;;;;12.18;77.62;101746.53;5056086;28;20047;-77
2022/06/15 00:05:43;;;;;;;14.75;5.53;;;;;;;12.16;77.48;101743.94;5058521;28;20024;-77
2022/06/15 00:08:10;;;;;;;13.80;4.95;;;;;;;12.14;78.21;101740.50;5058692;28;20032;-77
2022/06/15 00:10:35;;;;;;;19.58;5.95;;;;;;;12.09;77.88;101736.38;5056673;28;20032;-77
2022/06/15 00:13:01;;;;;;;16.25;5.72;;;;;;;12.06;78.00;101740.13;5056366;28;20519;-77
2022/06/15 00:15:26;;;;;;;15.98;5.53;;;;;;;12.01;78.32;101744.97;5056363;28;20032;-77
2022/06/15 00:17:52;;;;;;;18.02;6.38;;;;;;;11.95;78.68;101746.22;5057889;28;20059;-77
2022/06/15 00:20:17;;;;;;;17.33;6.07;;;;;;;11.91;78.34;101733.03;5053161;28;20032;-77
2022/06/15 00:22:42;;;;;;;14.75;5.45;;;;;;;11.87;78.14;101733.22;5029527;28;1046927;-77
2022/06/15 00:25:09;;;;;;;17.30;6.22;;;;;;;11.83;78.43;101738.88;5065254;28;20044;-77
2022/06/15 00:27:35;;;;;;;13.82;5.30;;;;;;;11.79;78.13;101738.22;5068355;28;20050;-77
2022/06/15 00:30:01;;;;;;;16.95;5.82;;;;;;;11.76;78.47;101743.81;5069005;28;20032;-77
2022/06/15 00:32:26;;;;;;;18.45;6.07;;;;;;;11.74;78.52;101737.66;5069372;28;20095;-77
2022/06/15 00:34:52;;;;;;;19.83;6.32;;;;;;;11.72;79.24;101734.19;5069590;28;20041;-77
2022/06/15 00:37:17;;;;;;;14.32;5.40;;;;;;;11.70;79.12;101738.81;5068846;28;20021;-77
2022/06/15 00:39:42;;;;;;;15.43;5.78;;;;;;;11.66;79.24;101735.44;5061330;28;20021;-77
2022/06/15 00:42:11;;;;;;;17.83;6.38;;;;;;;11.62;78.63;101725.84;5067591;28;20028;-77
2022/06/15 00:44:38;;;;;;;17.92;6.85;;;;;;;11.57;79.31;101725.28;5068632;28;20075;-77
2022/06/15 00:47:16;;;;;;;18.27;6.57;;;;;;;11.58;78.62;101726.13;5070792;28;20048;-77
2022/06/15 00:49:49;;;;;;;17.95;6.97;;;;;;;11.51;78.76;101721.13;5066795;28;20032;-77
2022/06/15 00:52:21;;;;;;;16.88;6.75;;;;;;;11.51;79.20;101725.66;5069276;28;20170;-77
2022/06/15 00:54:50;;;;;;;16.20;6.45;;;;;;;11.47;78.65;101722.28;5068157;28;20039;-77
2022/06/15 00:57:15;;;;;;;17.98;6.45;;;;;;;11.44;79.32;101727.00;5066689;28;20027;-77
2022/06/15 00:59:51;;;;;;;16.10;6.20;;;;;;;11.43;79.58;101728.81;5069520;28;20028;-77
2022/06/15 01:02:16;;;;;;;19.00;6.32;;;;;;;11.37;79.75;101729.22;5069207;28;20029;-77
2022/06/15 01:04:47;;;;;;;17.70;6.88;;;;;;;11.32;79.71;101717.88;5068197;28;20551;-77
2022/06/15 01:07:18;;;;;;;17.23;6.47;;;;;;;11.31;80.18;101718.84;5058735;28;20071;-77
2022/06/15 01:10:06;;;;;;;22.75;7.38;;;;;;;11.27;80.50;101707.38;5067719;28;20024;-77
2022/06/15 01:12:47;;;;;;;17.48;6.70;;;;;;;11.29;80.61;101715.34;5070390;28;20067;-77
2022/06/15 01:16:00;;;;;;;17.83;7.03;;;;;;;11.29;79.10;101720.75;5067571;28;20066;-77
2022/06/15 01:18:26;;;;;;;20.33;7.00;;;;;;;11.19;79.52;101715.94;5055430;28;20192;-77
2022/06/15 01:21:20;;;;;;;18.92;7.22;;;;;;;11.22;79.30;101719.44;5069323;28;20151;-78
2022/06/15 01:23:56;;;;;;;18.52;7.55;;;;;;;11.16;79.64;101710.75;5068768;28;20063;-78
2022/06/15 01:26:42;;;;;;;16.35;6.63;;;;;;;11.19;79.72;101724.00;5059206;28;20116;-78
2022/06/15 01:29:53;;;;;;;20.95;7.90;;;;;;;11.20;79.06;101719.53;5054432;28;20028;-78
2022/06/15 01:32:28;;;;;;;18.15;7.05;;;;;;;11.16;79.63;101720.66;5054974;28;20037;-77
2022/06/15 01:35:04;;;;;;;16.98;6.93;;;;;;;11.11;80.30;101709.31;5071342;28;20024;-77
2022/06/15 01:37:40;;;;;;;20.42;7.13;;;;;;;11.08;80.74;101713.03;5071211;28;20035;-77
2022/06/15 01:40:19;;;;;;;18.48;6.63;;;;;;;11.08;79.97;101712.19;5069692;28;20040;-77
2022/06/15 01:42:59;;;;;;;17.38;7.07;;;;;;;11.02;80.11;101706.25;5066974;28;20028;-77
2022/06/15 01:45:28;;;;;;;18.02;6.70;;;;;;;10.98;80.73;101711.88;5063379;28;20024;-77
2022/06/15 01:47:57;;;;;;;16.85;7.22;;;;;;;10.97;80.79;101715.56;5069557;28;20047;-77
2022/06/15 01:50:26;;;;;;;17.15;7.05;;;;;;;10.95;81.03;101709.38;5066811;28;20062;-77
2022/06/15 01:53:18;;;;;;;18.05;7.25;;;;;;;11.00;79.80;101701.91;5068257;28;20032;-77
2022/06/15 01:56:17;;;;;;;18.92;7.53;;;;;;;10.99;80.17;101706.41;5068486;28;20036;-77
2022/06/15 01:58:47;;;;;;;17.15;7.50;;;;;;;10.94;80.90;101707.66;5065267;28;20492;-77
2022/06/15 02:01:20;;;;;;;18.25;7.07;;;;;;;10.92;80.96;101699.69;5056024;28;20082;-77
2022/06/15 02:03:54;;;;;;;17.48;7.13;;;;;;;10.89;81.45;101699.00;5066156;28;20060;-77
2022/06/15 02:06:31;;;;;;;17.50;6.68;;;;;;;10.89;80.73;101699.84;5065798;28;20039;-77
2022/06/15 02:09:12;;;;;;;18.17;6.88;;;;;;;10.85;80.75;101687.59;5060568;28;20417;-77
2022/06/15 02:11:40;;;;;;;17.55;7.55;;;;;;;10.81;81.79;101694.97;5061015;28;20032;-77
2022/06/15 02:14:08;;;;;;;17.25;6.80;;;;;;;10.79;82.16;101694.19;5065396;28;20035;-77
2022/06/15 02:16:45;;;;;;;16.38;6.70;;;;;;;10.76;82.10;101694.38;5068027;28;20028;-77
2022/06/15 02:19:15;;;;;;;16.80;6.60;;;;;;;10.75;82.24;101689.97;5067166;28;20392;-77
2022/06/15 02:21:43;;;;;;;19.52;6.55;;;;;;;10.73;82.38;101689.19;5067576;28;20020;-77
2022/06/15 02:24:11;;;;;;;16.35;7.15;;;;;;;10.70;82.08;101686.66;5067178;28;20045;-77
2022/06/15 02:26:38;;;;;;;18.63;7.05;;;;;;;10.69;81.24;101684.97;5065774;28;20021;-77
2022/06/15 02:29:09;;;;;;;18.77;6.63;;;;;;;10.68;81.44;101691.28;5065627;28;20024;-78
2022/06/15 02:31:36;;;;;;;20.27;7.18;;;;;;;10.67;82.34;101678.78;5067022;28;20440;-78
2022/06/15 02:34:03;;;;;;;17.95;6.47;;;;;;;10.65;81.25;101684.25;5067352;28;20056;-78
2022/06/15 02:36:31;;;;;;;18.85;6.82;;;;;;;10.63;82.42;101682.63;5070153;28;20035;-78
2022/06/15 02:38:56;;;;;;;16.77;6.78;;;;;;;10.61;81.67;101681.84;5066441;28;20035;-77
2022/06/15 02:41:22;;;;;;;20.52;7.28;;;;;;;10.59;82.30;101673.03;5061331;28;20044;-77
2022/06/15 02:43:51;;;;;;;14.80;6.88;;;;;;;10.56;82.89;101678.59;5068144;28;20111;-77
2022/06/15 02:46:18;;;;;;;17.00;7.43;;;;;;;10.53;83.07;101673.38;5069208;28;20029;-77
2022/06/15 02:48:45;;;;;;;17.50;7.07;;;;;;;10.50;83.12;101674.44;5059597;28;20033;-77
2022/06/15 02:51:17;;;;;;;17.90;7.10;;;;;;;10.53;83.46;101668.88;5067277;28;20053;-77
2022/06/15 02:53:43;;;;;;;16.80;7.78;;;;;;;10.52;82.59;101664.47;5066350;28;20488;-77
2022/06/15 02:56:12;;;;;;;16.80;6.72;;;;;;;10.54;82.37;101669.75;5068668;28;20029;-77
2022/06/15 02:58:42;;;;;;;18.63;7.25;;;;;;;10.51;82.59;101665.41;5060125;28;20044;-77
2022/06/15 03:01:08;;;;;;;18.40;6.85;;;;;;;10.49;82.79;101665.50;5070120;28;20040;-77
2022/06/15 03:03:34;;;;;;;18.17;6.97;;;;;;;10.48;82.19;101669.16;5069479;28;20033;-77
2022/06/15 03:05:59;;;;;;;17.65;6.78;;;;;;;10.47;82.12;101651.31;5072813;28;20024;-77
2022/06/15 03:08:25;;;;;;;19.58;7.88;;;;;;;10.45;81.55;101665.78;5061100;28;20048;-77
2022/06/15 03:10:52;;;;;;;19.20;7.18;;;;;;;10.43;82.39;101663.19;5070467;28;20025;-77
2022/06/15 03:13:18;;;;;;;18.60;6.85;;;;;;;10.43;82.62;101668.56;5069766;28;20105;-77
2022/06/15 03:15:43;;;;;;;19.92;6.88;;;;;;;10.38;82.17;101665.28;5067282;28;20024;-77
2022/06/15 03:18:09;;;;;;;18.90;7.32;;;;;;;10.39;82.29;101667.00;5068570;28;20082;-77
2022/06/15 03:20:34;;;;;;;19.17;6.90;;;;;;;10.38;82.58;101656.34;5070837;28;20490;-77
2022/06/15 03:22:59;;;;;;;16.75;6.15;;;;;;;10.36;82.48;101660.97;5071278;28;20045;-77
2022/06/15 03:25:25;;;;;;;19.63;7.43;;;;;;;10.36;82.84;101667.19;5071919;28;20628;-77
2022/06/15 03:27:50;;;;;;;17.80;6.82;;;;;;;10.33;83.00;101670.03;5069086;28;20016;-77
2022/06/15 03:30:16;;;;;;;18.13;7.45;;;;;;;10.34;83.03;101671.81;5070188;28;20100;-77
2022/06/15 03:32:42;;;;;;;19.75;7.60;;;;;;;10.30;83.33;101668.38;5071932;28;20024;-77
2022/06/15 03:35:10;;;;;;;17.45;7.38;;;;;;;10.30;83.10;101676.44;5071245;28;20485;-77
2022/06/15 03:37:35;;;;;;;18.08;7.07;;;;;;;10.31;83.03;101674.66;5068230;28;20034;-78
2022/06/15 03:40:01;;;;;;;17.92;7.65;;;;;;;10.32;82.36;101674.56;5068909;28;20473;-77
2022/06/15 03:42:26;;;;;;;19.38;6.88;;;;;;;10.33;83.03;101678.09;5070324;28;20031;-77
2022/06/15 03:44:55;;;;;;;19.58;6.95;;;;;;;10.31;83.32;101674.66;5069734;28;20036;-77
2022/06/15 03:47:21;;;;;;;18.05;7.63;;;;;;;10.31;83.77;101682.72;5066509;28;20557;-77
2022/06/15 03:49:48;;;;;;;18.73;7.97;;;;;;;10.30;83.80;101681.81;5068740;28;20050;-78
2022/06/15 03:52:15;;;;;;;18.17;7.40;;;;;;;10.29;84.21;101680.09;5070569;28;20028;-78
2022/06/15 03:54:40;;;;;;;19.10;7.15;;;;;;;10.32;83.27;101681.72;5069557;28;20052;-77
2022/06/15 03:57:06;;;;;;;20.45;7.80;;;;;;;10.33;83.88;101680.78;5070632;28;20033;-77
2022/06/15 03:59:31;;;;;;;20.65;7.50;;;;;;;10.34;84.58;101678.97;5068955;28;20443;-77
2022/06/15 04:01:57;;;;;;;17.55;7.28;;;;;;;10.33;84.41;101675.41;5070056;28;20028;-77
2022/06/15 04:04:22;;;;;;;16.10;6.80;;;;;;;10.34;84.03;101670.91;5069740;28;20400;-77
2022/06/15 04:06:49;;;;;;;18.92;7.57;;;;;;;10.33;84.08;101675.41;5068681;28;20383;-77
2022/06/15 04:09:20;;;;;;;18.05;7.25;;;;;;;10.38;84.40;101676.06;5069007;28;20035;-77
2022/06/15 04:11:58;;;;;;;21.05;7.93;;;;;;;10.39;84.98;101675.06;5062064;28;20134;-77
2022/06/15 04:14:33;;;;;;;21.15;8.43;;;;;;;10.41;84.87;101683.91;5064817;28;20115;-77
2022/06/15 04:16:59;;;;;;;17.95;7.80;;;;;;;10.41;84.83;101685.72;5061970;28;20494;-77
2022/06/15 04:19:30;;;;;;;18.33;7.55;;;;;;;10.39;85.15;101680.44;5069260;28;20099;-77
2022/06/15 04:21:56;;;;;;;18.02;7.60;;;;;;;10.43;84.28;101686.53;5070456;28;20472;-77
2022/06/15 04:24:25;;;;;;;19.67;8.00;;;;;;;10.45;84.64;101674.72;5066868;28;20032;-77
2022/06/15 04:26:50;;;;;;;20.35;8.55;;;;;;;10.51;84.71;101675.31;5070157;28;20027;-77
2022/06/15 04:29:18;;;;;;;20.25;8.10;;;;;;;10.54;85.67;101678.69;5068532;28;20544;-77
2022/06/15 04:31:43;;;;;;;19.73;8.40;;;;;;;10.61;85.08;101679.16;5067730;28;20078;-77
2022/06/15 04:34:10;;;;;;;19.88;7.78;;;;;;;10.63;85.47;101670.06;5071013;28;20383;-77
2022/06/15 04:36:36;;;;;;;17.48;7.72;;;;;;;10.66;85.50;101672.56;5070465;28;20028;-77
2022/06/15 04:39:03;;;;;;;20.30;8.30;;;;;;;10.69;85.88;101674.22;5068989;28;20388;-77
2022/06/15 04:41:28;;;;;;;18.60;7.85;;;;;;;10.77;86.17;101673.72;5067206;28;20058;-78
2022/06/15 04:43:54;;;;;;;19.52;8.02;;;;;;;10.80;84.63;101668.16;5068811;28;20032;-78
2022/06/15 04:46:19;;;;;;;16.20;7.63;;;;;;;10.85;86.43;101671.44;5069528;28;20021;-78
2022/06/15 04:48:44;;;;;;;18.95;8.23;;;;;;;10.95;85.61;101679.78;5067220;28;20030;-78
2022/06/15 04:51:23;;;;;;;19.52;8.88;;;;;;;10.99;85.39;101679.50;5065266;28;20043;-78
2022/06/15 04:53:49;;;;;;;20.02;7.60;;;;;;;11.02;85.37;101679.34;5069695;28;20430;-78
2022/06/15 04:56:16;;;;;;;19.45;8.23;;;;;;;11.10;85.54;101672.59;5069047;28;20039;-78
2022/06/15 04:58:43;;;;;;;21.30;8.20;;;;;;;11.15;85.94;101674.03;5069524;28;20103;-78
2022/06/15 05:01:11;;;;;;;19.70;8.50;;;;;;;11.21;85.72;101678.19;5068433;28;20024;-78
2022/06/15 05:03:37;;;;;;;21.50;8.07;;;;;;;11.26;85.43;101688.66;5070046;28;20029;-78
2022/06/15 05:06:12;;;;;;;20.13;8.55;;;;;;;11.33;85.21;101680.13;5064834;28;20502;-78
2022/06/15 05:08:37;;;;;;;20.05;8.45;;;;;;;11.39;85.76;101676.16;5065386;28;20424;-77
2022/06/15 05:11:02;;;;;;;25.73;8.63;;;;;;;11.44;85.78;101687.50;5067018;28;20142;-77
2022/06/15 05:13:28;;;;;;;22.45;8.57;;;;;;;11.47;85.23;101681.91;5067426;28;20055;-77
2022/06/15 05:15:55;;;;;;;26.77;9.85;;;;;;;11.55;85.12;101676.03;5067524;28;20056;-77
2022/06/15 05:18:20;;;;;;;21.60;9.18;;;;;;;11.63;86.19;101683.63;5066830;28;20028;-77
2022/06/15 05:20:45;;;;;;;20.40;8.88;;;;;;;11.70;85.76;101675.06;5067593;28;20077;-77
2022/06/15 05:23:14;;;;;;;20.98;8.90;;;;;;;11.77;85.80;101685.41;5069291;28;20472;-77
2022/06/15 05:25:39;;;;;;;23.75;8.73;;;;;;;11.82;84.39;101676.06;5081134;28;20036;-77
2022/06/15 05:28:05;;;;;;;22.60;9.32;;;;;;;11.89;85.13;101682.78;5063924;28;20425;-77
2022/06/15 05:30:30;;;;;;;20.05;9.25;;;;;;;11.97;85.53;101679.63;5067925;28;20016;-77
2022/06/15 05:32:55;;;;;;;20.92;9.30;;;;;;;12.04;85.64;101682.78;5064571;28;20157;-77
2022/06/15 05:35:21;;;;;;;22.52;9.50;;;;;;;12.12;85.12;101682.28;5067978;28;20042;-78
2022/06/15 05:37:46;;;;;;;19.85;9.00;;;;;;;12.22;84.01;101683.38;5066543;28;20642;-77
2022/06/15 05:40:11;;;;;;;22.25;10.05;;;;;;;12.30;84.51;101680.16;5058487;28;20032;-77
2022/06/15 05:42:37;;;;;;;20.42;8.85;;;;;;;12.39;81.50;101679.56;5066316;28;20079;-77
2022/06/15 05:45:02;;;;;;;21.17;9.13;;;;;;;12.46;81.48;101685.38;5064363;28;20028;-77
2022/06/15 05:47:28;;;;;;;21.98;10.45;;;;;;;12.54;82.69;101689.28;5067914;28;20396;-77
2022/06/15 05:49:53;;;;;;;19.30;9.57;;;;;;;12.60;83.58;101693.41;5063071;28;20024;-77
2022/06/15 05:52:18;;;;;;;23.73;10.30;;;;;;;12.67;83.97;101693.84;5069312;28;20064;-77
2022/06/15 05:54:44;;;;;;;22.38;9.80;;;;;;;12.74;81.76;101697.88;5064829;28;20049;-77
2022/06/15 05:57:18;;;;;;;20.67;10.15;;;;;;;12.78;83.02;101688.56;5065758;28;20066;-77
2022/06/15 05:59:43;;;;;;;20.98;10.68;;;;;;;12.89;82.46;101690.53;5065713;28;20070;-77
2022/06/15 06:02:14;;;;;;;22.33;11.00;;;;;;;12.97;82.18;101687.28;5066931;28;20541;-77
2022/06/15 06:04:39;;;;;;;21.15;10.75;;;;;;;13.03;81.63;101687.75;5064575;28;20029;-78
2022/06/15 06:07:04;;;;;;;21.25;10.50;;;;;;;13.12;81.67;101688.94;5068018;28;20381;-78
2022/06/15 06:09:31;;;;;;;22.00;11.07;;;;;;;13.21;80.98;101688.25;5054774;28;20032;-78
2022/06/15 06:11:56;;;;;;;22.58;10.73;;;;;;;13.28;81.80;101686.84;5067256;28;20032;-78
2022/06/15 06:14:21;;;;;;;22.98;9.85;;;;;;;13.36;79.84;101686.34;5065923;28;20511;-78
2022/06/15 06:16:47;;;;;;;21.73;10.23;;;;;;;13.44;80.77;101680.38;5067418;28;20041;-78
2022/06/15 06:19:12;;;;;;;24.52;10.60;;;;;;;13.53;78.96;101692.34;5064436;28;20122;-78
2022/06/15 06:21:38;;;;;;;21.67;10.57;;;;;;;13.59;80.83;101687.38;5067766;28;20662;-78
2022/06/15 06:24:03;;;;;;;25.00;10.32;;;;;;;13.65;78.49;101677.97;5067721;28;20124;-78
2022/06/15 06:26:31;;;;;;;22.70;8.02;;;;;;;13.72;75.88;101678.34;5066822;28;20119;-77
2022/06/15 06:28:57;;;;;;;22.25;10.10;;;;;;;13.78;76.18;101691.44;5060948;28;20020;-77
2022/06/15 06:31:22;;;;;;;21.15;9.77;;;;;;;13.88;76.64;101681.69;5061732;28;20503;-77
2022/06/15 06:33:49;;;;;;;19.88;9.70;;;;;;;13.95;77.01;101684.78;5064292;28;20020;-77
2022/06/15 06:36:37;;;;;;;20.83;9.70;;;;;;;14.03;77.21;101689.63;5067014;28;20033;-77
2022/06/15 06:39:06;;;;;;;19.05;8.02;;;;;;;14.09;75.54;101695.41;5070813;28;20160;-77
2022/06/15 06:41:32;;;;;;;20.90;10.27;;;;;;;14.20;78.93;101686.50;5068288;28;20028;-77
2022/06/15 06:43:59;;;;;;;22.25;10.45;;;;;;;14.28;78.18;101694.91;5067852;28;20104;-78
2022/06/15 06:46:25;;;;;;;22.25;10.75;;;;;;;14.33;78.97;101692.72;5071615;28;20089;-78
2022/06/15 06:48:51;;;;;;;21.88;8.50;;;;;;;14.41;76.21;101705.66;5071967;28;20179;-78
2022/06/15 06:51:16;;;;;;;22.83;9.13;;;;;;;14.47;73.53;101696.22;5073091;28;20036;-78
2022/06/15 06:53:41;;;;;;;20.92;8.85;;;;;;;14.60;76.12;101699.69;5070731;28;20040;-78
2022/06/15 06:56:09;;;;;;;24.55;10.20;;;;;;;14.71;74.93;101700.75;5064822;28;20028;-78
2022/06/15 06:58:35;;;;;;;19.60;8.55;;;;;;;14.76;76.17;101702.13;5071933;28;20020;-78
2022/06/15 07:01:01;;;;;;;21.23;9.50;;;;;;;14.90;74.88;101701.03;5072730;28;20024;-78
2022/06/15 07:03:27;;;;;;;19.77;8.55;;;;;;;14.96;74.42;101708.66;5073078;28;20089;-78
2022/06/15 07:06:02;;;;;;;19.27;8.70;;;;;;;15.02;74.94;101705.50;5072711;28;20511;-78
2022/06/15 07:08:28;;;;;;;18.98;8.52;;;;;;;15.14;73.82;101711.78;5069347;28;20027;-77
2022/06/15 07:10:53;;;;;;;21.38;8.95;;;;;;;15.17;74.82;101716.97;5070385;28;20425;-76
2022/06/15 07:13:18;;;;;;;16.95;6.25;;;;;;;15.14;71.34;101711.78;5070250;28;20060;-76
2022/06/15 07:15:43;;;;;;;22.40;9.20;;;;;;;15.24;72.56;101708.34;5068558;28;20479;-77
2022/06/15 07:18:09;;;;;;;13.73;5.32;;;;;;;15.22;70.21;101710.31;5071158;28;20038;-77
2022/06/15 07:20:34;;;;;;;22.85;7.88;;;;;;;15.28;71.88;101716.09;5069655;28;20025;-76
2022/06/15 07:22:59;;;;;;;22.08;8.23;;;;;;;15.34;73.36;101710.22;5071775;28;20044;-76
2022/06/15 07:25:25;;;;;;;18.60;6.63;;;;;;;15.35;70.61;101708.34;5071342;28;20048;-75
2022/06/15 07:27:51;;;;;;;24.63;9.40;;;;;;;15.46;73.52;101707.47;5070367;28;20032;-77
2022/06/15 07:30:20;;;;;;;15.90;5.68;;;;;;;15.46;72.05;101715.59;5072589;28;20032;-77
2022/06/15 07:32:45;;;;;;;17.33;7.97;;;;;;;15.55;72.11;101704.91;5068649;28;20036;-75
2022/06/15 07:35:15;;;;;;;26.52;8.85;;;;;;;15.66;72.07;101706.72;5071698;28;20055;-75
2022/06/15 07:37:40;;;;;;;19.83;8.18;;;;;;;15.73;72.87;101709.81;5062455;28;20028;-75
2022/06/15 07:40:06;;;;;;;19.30;7.32;;;;;;;15.79;71.69;101713.91;5058122;28;21936;-75
2022/06/15 07:42:31;;;;;;;21.30;8.27;;;;;;;15.89;69.14;101707.59;5057886;28;20124;-75
2022/06/15 07:44:56;;;;;;;17.15;6.47;;;;;;;15.99;70.00;101712.25;5065413;28;20115;-75
2022/06/15 07:50:06;;;;;;;14.38;5.88;;;;;;;16.02;69.21;101709.31;5068796;28;20174;-79
2022/06/15 07:52:41;;;;;;;19.63;7.80;;;;;;;16.08;70.17;101712.34;5063405;28;20119;-80
2022/06/15 07:55:09;;;;;;;20.05;7.68;;;;;;;16.12;71.55;101709.38;5061792;28;20039;-79
2022/06/15 07:57:35;;;;;;;18.77;7.18;;;;;;;16.17;71.24;101709.88;5063034;28;20025;-78
2022/06/15 08:00:01;;;;;;;16.83;6.28;;;;;;;16.21;69.84;101716.78;5057966;28;20031;-78
2022/06/15 08:02:27;;;;;;;19.30;7.25;;;;;;;16.25;70.36;101708.25;5067615;28;20051;-78
2022/06/15 08:04:52;;;;;;;18.88;8.20;;;;;;;16.39;69.26;101709.78;5058796;28;20389;-78
2022/06/15 08:07:17;;;;;;;12.10;4.60;;;;;;;16.36;69.15;101717.34;5056478;28;20029;-78
2022/06/15 08:09:43;;;;;;;17.58;5.70;;;;;;;16.45;69.54;101715.69;5059240;28;20036;-77
2022/06/15 08:12:16;;;;;;;21.42;7.85;;;;;;;16.57;70.05;101722.78;5061547;28;20487;-78
2022/06/15 08:14:52;;;;;;;15.68;5.18;;;;;;;16.56;68.85;101712.91;5067254;28;20079;-78
2022/06/15 08:17:25;;;;;;;17.77;6.93;;;;;;;16.65;68.84;101714.88;5055208;28;20186;-78
2022/06/15 08:19:55;;;;;;;23.27;5.63;;;;;;;16.68;68.77;101711.88;5061309;28;20066;-78
2022/06/15 08:22:20;;;;;;;19.00;6.30;;;;;;;16.76;68.14;101716.66;5064812;28;20413;-78
2022/06/15 08:24:47;;;;;;;21.45;6.93;;;;;;;16.86;69.93;101719.44;5052998;28;20021;-78
2022/06/15 08:27:15;;;;;;;17.23;5.55;;;;;;;16.87;68.20;101721.19;5065162;28;20037;-78
2022/06/15 08:29:41;;;;;;;15.00;6.28;;;;;;;16.93;67.34;101713.38;5058664;28;20396;-78
2022/06/15 08:32:09;;;;;;;15.90;5.95;;;;;;;17.00;67.73;101716.44;5063246;28;20020;-78
2022/06/15 08:34:37;;;;;;;17.45;6.30;;;;;;;17.09;63.15;101721.06;5063488;28;20070;-77
2022/06/15 08:37:05;;;;;;;17.17;5.32;;;;;;;17.16;64.33;101720.50;5055257;28;20047;-77
2022/06/15 08:39:30;;;;;;;20.65;6.28;;;;;;;17.23;65.27;101716.25;5056674;28;20040;-78
2022/06/15 08:42:17;;;;;;;16.10;5.13;;;;;;;17.24;64.70;101718.00;5066056;28;20032;-78
2022/06/15 08:45:16;;;;;;;12.45;5.18;;;;;;;17.30;65.97;101709.28;5058297;28;20333;-78
2022/06/15 08:48:08;;;;;;;20.55;7.13;;;;;;;17.33;65.55;101706.28;5053518;28;20575;-78
2022/06/15 08:50:37;;;;;;;19.50;6.03;;;;;;;17.40;62.57;101698.47;5054517;28;20056;-78
2022/06/15 08:53:13;;;;;;;17.40;6.40;;;;;;;17.49;63.96;101704.94;5057226;28;20031;-78
2022/06/15 08:55:59;;;;;;;16.63;5.93;;;;;;;17.56;65.85;101703.41;5050353;28;20028;-78
2022/06/15 08:58:39;;;;;;;12.85;4.53;;;;;;;17.57;64.81;101703.25;5052198;28;20120;-78
2022/06/15 09:01:13;;;;;;;16.35;5.75;;;;;;;17.60;64.48;101707.53;5063223;28;20043;-78
2022/06/15 09:04:10;;;;;;;12.85;4.72;;;;;;;17.67;65.25;101707.88;5054129;28;20039;-78
2022/06/15 09:06:44;;;;;;;18.02;6.00;;;;;;;17.78;63.36;101703.19;5065202;28;20356;-78
2022/06/15 09:09:28;;;;;;;13.77;4.80;;;;;;;17.80;63.99;101703.91;5060546;28;20036;-78
2022/06/15 09:15:20;;;;;;;17.80;4.93;;;;;;;17.90;63.76;101697.66;5051108;28;20105;-78
2022/06/15 09:17:48;;;;;;;14.68;5.60;;;;;;;17.98;62.51;101700.56;5048764;28;20036;-78
2022/06/15 09:20:20;;;;;;;15.55;5.45;;;;;;;17.99;59.90;101702.25;5053137;28;20404;-78
2022/06/15 09:22:58;;;;;;;14.07;5.30;;;;;;;18.11;62.15;101705.72;5054162;28;20049;-78
2022/06/15 09:25:29;;;;;;;14.05;5.00;;;;;;;18.12;61.55;101707.44;5057707;28;20939;-82
2022/06/15 09:28:02;;;;;;;16.77;5.75;;;;;;;18.22;61.79;101707.47;5049449;28;20025;-80
2022/06/15 09:30:36;;;;;;;15.07;5.88;;;;;;;18.29;60.80;101714.91;5061461;28;20507;-80
2022/06/15 09:33:18;;;;;;;15.50;5.97;;;;;;;18.36;61.52;101709.75;5055884;28;20079;-80
2022/06/15 09:36:02;;;;;;;21.95;6.75;;;;;;;18.46;61.03;101704.31;5061003;28;20056;-80
2022/06/15 09:38:29;;;;;;;15.07;5.03;;;;;;;18.47;59.93;101704.16;5048520;28;20033;-80
2022/06/15 09:41:33;;;;;;;17.85;6.03;;;;;;;18.51;60.71;101700.16;5049058;28;20037;-80
2022/06/15 09:44:36;;;;;;;15.27;5.40;;;;;;;18.57;60.38;101698.72;5057718;28;20035;-81
2022/06/15 09:47:31;;;;;;;18.30;5.30;;;;;;;18.56;60.12;101699.72;5049851;28;20100;-81
2022/06/15 09:49:57;;;;;;;16.77;5.30;;;;;;;18.57;59.63;101698.72;5052153;28;20021;-80
2022/06/15 09:52:43;;;;;;;14.15;4.90;;;;;;;18.60;60.13;101697.56;5054760;28;20048;-80
2022/06/15 09:55:17;;;;;;;14.23;5.68;;;;;;;18.67;57.56;101696.00;5053623;28;20078;-80
2022/06/15 09:57:43;;;;;;;13.70;4.68;;;;;;;18.73;59.75;101695.41;5059891;28;20067;-80
2022/06/15 10:00:14;;;;;;;13.35;4.70;;;;;;;18.69;59.09;101696.69;5065893;28;20021;-80
2022/06/15 10:02:44;;;;;;;15.65;6.35;;;;;;;18.80;58.37;101699.28;5062152;28;20047;-80
2022/06/15 10:05:21;;;;;;;16.40;5.60;;;;;;;18.91;58.52;101697.41;5058944;28;20098;-80
2022/06/15 10:07:50;;;;;;;14.88;5.45;;;;;;;18.94;59.26;101703.41;5055006;28;20369;-80
2022/06/15 10:10:19;;;;;;;16.92;6.00;;;;;;;18.96;54.70;101700.53;5064514;28;20024;-80
2022/06/15 10:12:56;;;;;;;;;;;;;;;18.91;59.49;101692.81;5064759;28;20037;-81
2022/06/15 10:15:34;;;;;;;18.17;5.63;;;;;;;19.12;62.11;101699.94;5065267;28;19912;-81
2022/06/15 10:18:43;;;;;;;8.57;3.97;;;;;;;18.99;59.72;101695.69;5056276;28;20036;-81
2022/06/15 10:21:22;;;;;;;17.48;5.50;;;;;;;19.08;60.24;101701.22;5053212;28;20037;-81
2022/06/15 10:23:51;;;;;;;;;;;;;;;19.01;59.76;101699.09;5065709;28;20048;-81
2022/06/15 10:26:51;;;;;;;14.20;5.18;;;;;;;19.17;58.49;101695.75;5068974;28;20419;-80
2022/06/15 10:29:22;;;;;;;11.65;3.67;;;;;;;19.14;57.60;101687.03;5052856;28;20110;-80
2022/06/15 10:32:00;;;;;;;15.75;5.65;;;;;;;19.32;57.32;101685.22;5055001;28;20040;-81
2022/06/15 10:34:32;;;;;;;13.40;5.10;;;;;;;19.43;57.63;101689.66;5065383;28;20123;-80
2022/06/15 10:37:03;;;;;;;15.32;4.60;;;;;;;19.39;57.53;101699.97;5057295;28;20028;-80
2022/06/15 10:39:33;;;;;;;17.02;4.82;;;;;;;19.54;58.60;101692.16;5061298;28;20364;-80
2022/06/15 10:42:06;;;;;;;16.85;5.43;;;;;;;19.52;56.93;101688.75;5059832;28;20115;-76
2022/06/15 10:44:48;;;;;;;12.77;3.83;;;;;;;19.44;57.13;101687.78;5066817;28;20036;-76
2022/06/15 10:47:24;;;;;;;14.75;4.60;;;;;;;19.47;58.99;101691.03;5055528;28;20025;-76
2022/06/15 10:49:53;;;;;;;14.38;4.18;;;;;;;19.58;56.81;101686.41;5067104;28;20021;-76
2022/06/15 10:52:26;;;;;;;18.90;6.40;;;;;;;19.63;58.55;101687.66;5067219;28;20028;-76
2022/06/15 11:03:45;;;;;;;18.95;6.40;;;;;;;19.89;55.87;101665.16;5046817;28;20044;-76
2022/06/15 11:06:10;;;;;;;27.65;5.63;;;;;;;19.97;58.26;101662.53;5046682;28;20049;-76
2022/06/15 11:08:44;;;;;;;17.73;5.55;;;;;;;20.05;57.47;101656.31;5046387;28;20548;-76
2022/06/15 11:11:18;;;;;;;8.95;3.83;;;;;;;20.05;56.89;101642.66;5045753;28;20037;-76
2022/06/15 11:13:56;;;;;;;17.52;5.63;;;;;;;20.17;56.80;101657.78;5030524;28;20055;-76
2022/06/15 11:19:09;;;;;;;13.88;5.57;;;;;;;20.29;54.52;101671.19;5047992;28;20475;-76
2022/06/15 11:22:00;;;;;;;15.40;4.47;;;;;;;20.23;56.25;101661.75;5043022;28;20025;-76
2022/06/15 11:24:35;;;;;;;16.88;5.43;;;;;;;20.22;53.56;101665.47;5046751;28;20037;-80
2022/06/15 11:27:28;;;;;;;14.43;5.00;;;;;;;20.29;58.08;101673.91;5048569;28;20052;-80
2022/06/15 11:30:12;;;;;;;17.30;5.78;;;;;;;20.32;56.25;101662.69;5038601;28;20488;-80
2022/06/15 11:32:46;;;;;;;16.63;5.05;;;;;;;20.38;55.80;101667.50;5057024;28;20130;-80
2022/06/15 11:35:12;;;;;;;16.48;5.60;;;;;;;20.42;56.31;101660.72;5062373;28;20071;-80
2022/06/15 11:38:15;;;;;;;12.43;4.45;;;;;;;20.39;56.27;101661.03;5059086;28;20060;-80
2022/06/15 11:40:49;;;;;;;16.15;5.30;;;;;;;20.45;54.67;101671.31;5067408;28;20093;-80
2022/06/15 11:43:24;;;;;;;20.05;5.38;;;;;;;20.49;55.39;101664.53;5067979;28;20029;-80
2022/06/15 11:46:11;;;;;;;13.52;5.20;;;;;;;20.50;56.19;101660.81;5064630;28;20115;-80
2022/06/15 11:49:02;;;;;;;17.35;4.88;;;;;;;20.53;56.00;101660.50;5063502;28;20036;-81
2022/06/15 11:51:55;;;;;;;14.13;4.50;;;;;;;20.54;54.96;101659.47;5065161;28;20040;-80